createdAt,value
2022-11-02T00:00:53.106Z,1.48
2022-11-02T00:03:19.743Z,1.30
2022-11-02T00:05:46.220Z,1.55
2022-11-02T00:08:12.651Z,1.20
2022-11-02T00:10:39.056Z,1.33
2022-11-02T00:13:05.957Z,1.10
2022-11-02T00:15:35.992Z,1.95
2022-11-02T00:18:07.773Z,1.10
2022-11-02T00:20:36.397Z,1.25
2022-11-02T00:23:03.626Z,1.67
2022-11-02T00:25:30.354Z,1.65
2022-11-02T00:27:56.751Z,1.80
2022-11-02T00:30:23.184Z,1.42
2022-11-02T00:32:51.035Z,1.42
2022-11-02T00:35:17.463Z,1.38
2022-11-02T00:37:43.998Z,1.27
2022-11-02T00:40:11.281Z,1.40
2022-11-02T00:42:37.689Z,1.20
2022-11-02T00:45:05.030Z,1.17
2022-11-02T00:47:31.467Z,1.25
2022-11-02T00:49:57.858Z,1.38
2022-11-02T00:52:24.275Z,1.17
2022-11-02T00:54:50.679Z,1.35
2022-11-02T00:57:17.138Z,1.00
2022-11-02T00:59:43.541Z,1.13
2022-11-02T01:02:10.166Z,1.38
2022-11-02T01:04:37.099Z,1.20
2022-11-02T01:07:04.131Z,1.25
2022-11-02T01:09:30.719Z,1.20
2022-11-02T01:11:57.254Z,1.27
2022-11-02T01:14:23.773Z,1.20
2022-11-02T01:16:50.260Z,1.20
2022-11-02T01:19:16.690Z,0.98
2022-11-02T01:21:43.085Z,1.20
2022-11-02T01:24:09.633Z,1.27
2022-11-02T01:26:36.079Z,1.35
2022-11-02T01:29:02.518Z,1.58
2022-11-02T01:31:29.000Z,1.42
2022-11-02T01:33:55.408Z,1.55
2022-11-02T01:38:54.845Z,0.90
2022-11-02T01:41:21.768Z,1.10
2022-11-02T01:43:51.906Z,1.00
2022-11-02T01:46:40.345Z,1.02
2022-11-02T01:49:11.257Z,1.00
2022-11-02T01:52:07.433Z,1.40
2022-11-02T01:54:52.491Z,1.40
2022-11-02T01:57:22.026Z,0.98
2022-11-02T01:59:54.955Z,1.55
2022-11-02T02:02:24.395Z,1.35
2022-11-02T02:04:55.567Z,1.25
2022-11-02T02:07:24.308Z,1.40
2022-11-02T02:09:51.881Z,1.10
2022-11-02T02:12:18.988Z,1.38
2022-11-02T02:14:45.840Z,0.90
2022-11-02T02:17:24.451Z,1.20
2022-11-02T02:20:17.528Z,1.20
2022-11-02T02:23:07.766Z,1.73
2022-11-02T02:26:02.943Z,1.10
2022-11-02T02:28:51.339Z,1.30
2022-11-02T02:31:33.219Z,0.93
2022-11-02T02:34:22.979Z,1.00
2022-11-02T02:36:57.871Z,1.00
2022-11-02T02:39:36.735Z,1.70
2022-11-02T02:42:22.478Z,1.40
2022-11-02T02:45:01.093Z,1.30
2022-11-02T02:47:32.878Z,1.63
2022-11-02T02:50:07.887Z,1.70
2022-11-02T02:52:37.639Z,1.52
2022-11-02T02:55:07.031Z,1.15
2022-11-02T02:57:35.315Z,1.13
2022-11-02T03:00:01.801Z,0.80
2022-11-02T03:02:32.293Z,1.00
2022-11-02T03:04:58.819Z,1.20
2022-11-02T03:07:34.774Z,0.93
2022-11-02T03:10:20.980Z,1.00
2022-11-02T03:13:04.111Z,1.92
2022-11-02T03:15:50.234Z,2.08
2022-11-02T03:18:27.504Z,1.30
2022-11-02T03:21:19.333Z,0.90
2022-11-02T03:23:55.234Z,1.02
2022-11-02T03:26:40.302Z,1.70
2022-11-02T03:29:15.574Z,1.50
2022-11-02T03:31:50.831Z,1.23
2022-11-02T03:34:39.292Z,1.13
2022-11-02T03:37:14.831Z,2.40
2022-11-02T03:39:46.462Z,1.38
2022-11-02T03:42:18.842Z,1.23
2022-11-02T03:44:47.819Z,2.10
2022-11-02T03:47:16.870Z,1.13
2022-11-02T03:49:45.779Z,1.35
2022-11-02T03:52:18.296Z,1.10
2022-11-02T03:54:53.366Z,1.30
2022-11-02T03:57:25.413Z,1.20
2022-11-02T03:59:51.781Z,1.00
2022-11-02T04:02:19.665Z,2.10
2022-11-02T04:04:50.880Z,2.00
2022-11-02T04:07:23.516Z,1.40
2022-11-02T04:09:49.898Z,1.30
2022-11-02T04:12:35.054Z,1.17
2022-11-02T04:15:01.695Z,1.15
2022-11-02T04:17:47.028Z,1.10
2022-11-02T04:20:13.616Z,1.00
2022-11-02T04:22:58.726Z,2.58
2022-11-02T04:25:25.222Z,1.40
2022-11-02T04:27:52.865Z,1.10
2022-11-02T04:30:21.574Z,1.30
2022-11-02T04:33:09.051Z,1.40
2022-11-02T04:35:37.465Z,1.20
2022-11-02T04:38:22.786Z,1.30
2022-11-02T04:41:09.198Z,1.50
2022-11-02T04:43:35.587Z,1.38
2022-11-02T04:46:01.994Z,1.67
2022-11-02T04:48:28.394Z,1.25
2022-11-02T04:50:54.802Z,1.17
2022-11-02T04:53:21.215Z,1.52
2022-11-02T04:55:47.662Z,1.30
2022-11-02T04:58:14.088Z,1.27
2022-11-02T05:00:40.533Z,1.60
2022-11-02T05:03:11.417Z,1.63
2022-11-02T05:05:39.079Z,1.27
2022-11-02T05:08:05.812Z,1.10
2022-11-02T05:10:32.599Z,1.17
2022-11-02T05:13:00.126Z,1.10
2022-11-02T05:15:26.677Z,2.33
2022-11-02T05:17:53.122Z,1.23
2022-11-02T05:20:19.598Z,1.13
2022-11-02T05:22:46.006Z,1.27
2022-11-02T05:25:12.990Z,1.23
2022-11-02T05:27:39.487Z,1.45
2022-11-02T05:30:06.934Z,1.42
2022-11-02T05:32:33.338Z,1.42
2022-11-02T05:34:59.713Z,2.00
2022-11-02T05:37:26.159Z,1.98
2022-11-02T05:39:52.538Z,1.30
2022-11-02T05:42:18.957Z,1.70
2022-11-02T05:44:45.397Z,1.20
2022-11-02T05:47:11.815Z,2.45
2022-11-02T05:49:38.251Z,1.52
2022-11-02T05:52:05.012Z,1.10
2022-11-02T05:54:31.440Z,1.30
2022-11-02T05:56:57.825Z,1.10
2022-11-02T05:59:24.248Z,2.35
2022-11-02T06:01:50.793Z,1.60
2022-11-02T06:04:17.219Z,1.20
2022-11-02T06:06:44.036Z,1.38
2022-11-02T06:09:10.414Z,1.27
2022-11-02T06:11:36.964Z,2.28
2022-11-02T06:14:03.762Z,2.13
2022-11-02T06:16:30.976Z,1.40
2022-11-02T06:18:57.499Z,1.30
2022-11-02T06:21:23.941Z,1.30
2022-11-02T06:23:50.675Z,1.27
2022-11-02T06:26:17.135Z,1.60
2022-11-02T06:28:43.549Z,1.52
2022-11-02T06:31:10.023Z,1.40
2022-11-02T06:33:36.456Z,2.00
2022-11-02T06:36:02.963Z,1.55
2022-11-02T06:38:29.408Z,1.30
2022-11-02T06:40:57.718Z,1.60
2022-11-02T06:43:25.348Z,1.33
2022-11-02T06:45:56.145Z,1.65
2022-11-02T06:48:23.110Z,1.20
2022-11-02T06:50:49.537Z,1.25
2022-11-02T06:53:15.974Z,2.13
2022-11-02T06:55:42.374Z,1.55
2022-11-02T06:58:08.795Z,1.30
2022-11-02T07:00:35.718Z,1.58
2022-11-02T07:03:07.535Z,1.90
2022-11-02T07:05:34.849Z,1.50
2022-11-02T07:08:01.270Z,1.25
2022-11-02T07:10:28.141Z,1.73
2022-11-02T07:12:55.937Z,1.55
2022-11-02T07:15:24.046Z,4.03
2022-11-02T07:17:50.670Z,1.50
2022-11-02T07:20:17.707Z,1.30
2022-11-02T07:22:59.492Z,1.27
2022-11-02T07:25:28.163Z,1.10
2022-11-02T07:27:55.016Z,1.50
2022-11-02T07:30:21.474Z,1.65
2022-11-02T07:32:48.184Z,1.10
2022-11-02T07:35:16.581Z,1.10
2022-11-02T07:37:43.133Z,1.58
2022-11-02T07:40:11.856Z,1.50
2022-11-02T07:42:47.201Z,1.20
2022-11-02T07:45:14.030Z,1.52
2022-11-02T07:47:45.023Z,1.20
2022-11-02T07:50:13.641Z,3.10
2022-11-02T07:52:44.802Z,3.22
2022-11-02T07:55:12.433Z,2.35
2022-11-02T07:57:38.922Z,4.55
2022-11-02T08:00:06.153Z,4.53
2022-11-02T08:02:32.810Z,4.35
2022-11-02T08:04:59.252Z,3.85
2022-11-02T08:07:25.665Z,2.97
2022-11-02T08:09:52.195Z,2.70
2022-11-02T08:12:18.662Z,3.00
2022-11-02T08:14:45.076Z,2.47
2022-11-02T08:17:12.021Z,2.47
2022-11-02T08:19:38.413Z,1.70
2022-11-02T08:22:05.005Z,3.38
2022-11-02T08:24:31.409Z,3.45
2022-11-02T08:26:57.814Z,3.90
2022-11-02T08:29:24.255Z,3.60
2022-11-02T08:31:50.682Z,2.53
2022-11-02T08:34:17.067Z,2.35
2022-11-02T08:36:43.482Z,2.83
2022-11-02T08:39:13.374Z,3.22
2022-11-02T08:41:42.718Z,1.73
2022-11-02T08:44:09.131Z,3.15
2022-11-02T08:46:35.706Z,1.90
2022-11-02T08:49:02.375Z,3.90
2022-11-02T08:51:28.831Z,2.50
2022-11-02T08:53:55.281Z,1.85
2022-11-02T08:56:21.699Z,4.00
2022-11-02T08:58:48.113Z,3.05
2022-11-02T09:01:14.592Z,2.47
2022-11-02T09:03:41.112Z,1.88
2022-11-02T09:06:07.613Z,1.73
2022-11-02T09:08:34.136Z,1.70
2022-11-02T09:11:02.800Z,1.60
2022-11-02T09:13:29.417Z,2.00
2022-11-02T09:15:57.842Z,1.25
2022-11-02T09:18:24.313Z,1.50
2022-11-02T09:20:51.536Z,2.40
2022-11-02T09:23:20.396Z,2.03
2022-11-02T09:25:47.562Z,2.78
2022-11-02T09:28:15.469Z,3.30
2022-11-02T09:30:42.856Z,4.80
2022-11-02T09:33:10.186Z,4.30
2022-11-02T09:35:39.497Z,3.72
2022-11-02T09:38:06.494Z,3.65
2022-11-02T09:40:46.247Z,3.10
2022-11-02T09:43:34.551Z,3.00
2022-11-02T09:46:08.042Z,2.33
2022-11-02T09:48:51.024Z,2.33
2022-11-02T09:51:33.669Z,3.88
2022-11-02T09:54:14.719Z,4.85
2022-11-02T09:56:44.983Z,3.00
2022-11-02T09:59:15.518Z,2.50
2022-11-02T10:01:49.706Z,2.17
2022-11-02T10:04:19.071Z,2.15
2022-11-02T10:06:56.426Z,2.10
2022-11-02T10:09:39.145Z,2.13
2022-11-02T10:12:14.199Z,2.53
2022-11-02T10:14:59.392Z,2.67
2022-11-02T10:17:29.357Z,2.00
2022-11-02T10:19:59.633Z,2.10
2022-11-02T10:22:32.310Z,1.70
2022-11-02T10:25:04.407Z,1.83
2022-11-02T10:27:37.565Z,2.20
2022-11-02T10:30:18.543Z,2.88
2022-11-02T10:32:49.954Z,2.88
2022-11-02T10:35:41.253Z,1.70
2022-11-02T10:38:28.999Z,1.30
2022-11-02T10:40:58.258Z,2.10
2022-11-02T10:43:44.482Z,1.88
2022-11-02T10:46:26.552Z,2.00
2022-11-02T10:48:52.929Z,1.63
2022-11-02T10:51:21.391Z,1.92
2022-11-02T10:53:50.989Z,1.92
2022-11-02T10:56:31.566Z,2.08
2022-11-02T10:59:18.751Z,1.73
2022-11-02T11:01:58.963Z,1.75
2022-11-02T11:04:27.682Z,1.70
2022-11-02T11:06:56.631Z,2.17
2022-11-02T11:09:25.942Z,1.00
2022-11-02T11:11:55.794Z,1.40
2022-11-02T11:20:28.226Z,1.27
2022-11-02T11:23:10.337Z,1.20
2022-11-02T11:25:36.839Z,1.40
2022-11-02T11:28:22.200Z,1.40
2022-11-02T11:31:01.993Z,1.10
2022-11-02T11:33:30.240Z,1.20
2022-11-02T11:35:56.682Z,1.30
2022-11-02T11:38:27.123Z,1.55
2022-11-02T11:40:59.446Z,1.25
2022-11-02T11:43:37.319Z,1.35
2022-11-02T11:46:07.395Z,1.27
2022-11-02T11:48:50.613Z,1.55
2022-11-02T11:51:26.676Z,1.85
2022-11-02T11:54:15.425Z,1.95
2022-11-02T11:56:41.965Z,1.23
2022-11-02T11:59:24.423Z,1.52
2022-11-02T12:02:00.302Z,1.25
2022-11-02T12:04:33.019Z,1.48
2022-11-02T12:07:24.095Z,1.52
2022-11-02T12:10:05.990Z,1.15
2022-11-02T12:12:44.268Z,1.00
2022-11-02T12:15:37.738Z,1.10
2022-11-02T12:18:31.083Z,1.25
2022-11-02T12:21:21.194Z,0.95
2022-11-02T12:23:47.609Z,1.13
2022-11-02T12:26:41.671Z,1.13
2022-11-02T12:29:49.282Z,1.20
2022-11-02T12:32:40.430Z,1.45
2022-11-02T12:35:31.551Z,1.00
2022-11-02T12:38:07.545Z,1.17
2022-11-02T12:41:02.323Z,0.85
2022-11-02T12:43:40.695Z,1.30
2022-11-02T12:46:20.242Z,1.02
2022-11-02T12:51:29.807Z,1.20
2022-11-02T12:54:04.967Z,1.60
2022-11-02T12:56:39.235Z,1.08
2022-11-02T12:59:06.596Z,0.95
2022-11-02T13:01:40.821Z,1.20
2022-11-02T13:04:23.286Z,1.23
2022-11-02T13:07:09.488Z,1.08
2022-11-02T13:09:51.359Z,1.00
2022-11-02T13:12:21.903Z,1.10
2022-11-02T13:14:51.726Z,1.67
2022-11-02T13:17:33.389Z,0.90
2022-11-02T13:20:14.472Z,1.00
2022-11-02T13:22:43.902Z,1.13
2022-11-02T13:25:39.247Z,0.90
2022-11-02T13:28:14.304Z,1.10
2022-11-02T13:30:42.819Z,1.05
2022-11-02T13:33:26.391Z,1.05
2022-11-02T13:35:54.209Z,1.30
2022-11-02T13:38:34.584Z,1.00
2022-11-02T13:41:25.548Z,0.75
2022-11-02T13:44:33.962Z,0.80
2022-11-02T13:47:11.703Z,1.27
2022-11-02T13:49:42.641Z,1.05
2022-11-02T13:52:22.602Z,1.65
2022-11-02T13:54:53.449Z,1.13
2022-11-02T13:57:46.470Z,1.00
2022-11-02T14:00:24.763Z,1.10
2022-11-02T14:03:00.821Z,1.00
2022-11-02T14:05:31.003Z,1.00
2022-11-02T14:08:05.379Z,0.80
2022-11-02T14:10:38.436Z,0.93
2022-11-02T14:13:05.729Z,2.30
2022-11-02T14:15:32.322Z,1.30
2022-11-02T14:18:12.041Z,1.65
2022-11-02T14:20:39.669Z,1.20
2022-11-02T14:23:09.149Z,1.00
2022-11-02T14:25:55.413Z,1.00
2022-11-02T14:28:25.687Z,0.85
2022-11-02T14:31:02.103Z,0.85
2022-11-02T14:33:31.571Z,1.10
2022-11-02T14:36:06.471Z,1.20
2022-11-02T14:38:51.783Z,0.70
2022-11-02T14:42:12.432Z,0.68
2022-11-02T14:45:01.964Z,1.70
2022-11-02T14:50:06.754Z,0.90
2022-11-02T14:52:35.398Z,1.15
2022-11-02T14:55:06.982Z,1.00
2022-11-02T14:57:40.612Z,1.17
2022-11-02T15:00:25.054Z,1.00
2022-11-02T15:02:55.087Z,0.80
2022-11-02T15:05:31.831Z,0.90
2022-11-02T15:08:16.537Z,0.82
2022-11-02T15:10:45.797Z,1.17
2022-11-02T15:13:21.388Z,1.00
2022-11-02T15:15:50.622Z,0.90
2022-11-02T15:18:29.287Z,0.80
2022-11-02T15:21:11.178Z,0.75
2022-11-02T15:23:48.984Z,0.82
2022-11-02T15:26:42.279Z,0.98
2022-11-02T15:29:30.864Z,1.25
2022-11-02T15:31:58.497Z,0.88
2022-11-02T15:34:40.727Z,1.10
2022-11-02T15:37:08.705Z,0.80
2022-11-02T15:39:35.574Z,0.75
2022-11-02T15:42:18.015Z,0.90
2022-11-02T15:45:14.253Z,0.90
2022-11-02T15:48:20.809Z,0.82
2022-11-02T15:51:12.041Z,0.90
2022-11-02T15:53:53.705Z,0.93
2022-11-02T15:56:39.159Z,0.98
2022-11-02T15:59:16.891Z,0.82
2022-11-02T16:01:43.655Z,0.80
2022-11-02T16:04:20.139Z,0.90
2022-11-02T16:06:46.760Z,0.90
2022-11-02T16:09:28.409Z,0.88
2022-11-02T16:12:19.103Z,0.77
2022-11-02T16:15:09.455Z,0.73
2022-11-02T16:17:35.962Z,0.90
2022-11-02T16:20:28.427Z,0.70
2022-11-02T16:22:59.558Z,0.93
2022-11-02T16:25:49.039Z,0.80
2022-11-02T16:28:20.796Z,0.85
2022-11-02T16:31:18.085Z,0.70
2022-11-02T16:33:53.977Z,1.00
2022-11-02T16:36:24.653Z,0.80
2022-11-02T16:39:20.979Z,0.80
2022-11-02T16:41:50.677Z,1.08
2022-11-02T16:44:24.931Z,0.80
2022-11-02T16:47:09.421Z,0.90
2022-11-02T16:49:56.376Z,0.88
2022-11-02T16:52:31.400Z,0.88
2022-11-02T16:54:57.986Z,0.77
2022-11-02T16:57:37.086Z,0.80
2022-11-02T17:00:05.358Z,0.70
2022-11-02T17:08:05.595Z,1.13
2022-11-02T17:10:34.465Z,1.00
2022-11-02T17:13:02.949Z,0.95
2022-11-02T17:15:32.285Z,0.80
2022-11-02T17:18:08.265Z,1.45
2022-11-02T17:20:36.890Z,0.90
2022-11-02T17:23:06.119Z,0.80
2022-11-02T17:25:32.558Z,1.00
2022-11-02T17:28:01.215Z,0.75
2022-11-02T17:30:27.576Z,1.80
2022-11-02T17:32:54.094Z,0.90
2022-11-02T17:35:26.015Z,0.80
2022-11-02T17:37:53.664Z,1.05
2022-11-02T17:40:20.351Z,0.90
2022-11-02T17:42:58.907Z,1.13
2022-11-02T17:45:37.183Z,1.45
2022-11-02T17:48:05.635Z,0.98
2022-11-02T17:50:35.324Z,0.90
2022-11-02T17:53:03.043Z,2.00
2022-11-02T17:55:32.526Z,1.10
2022-11-02T17:57:59.479Z,1.42
2022-11-02T18:00:27.795Z,0.88
2022-11-02T18:02:56.610Z,1.10
2022-11-02T18:05:26.007Z,1.05
2022-11-02T18:07:53.038Z,1.00
2022-11-02T18:10:21.606Z,0.73
2022-11-02T18:12:48.114Z,0.95
2022-11-02T18:15:21.583Z,0.75
2022-11-02T18:17:48.334Z,0.98
2022-11-02T18:20:15.549Z,1.08
2022-11-02T18:22:42.117Z,1.45
2022-11-02T18:25:17.118Z,1.00
2022-11-02T18:27:44.499Z,1.52
2022-11-02T18:30:13.914Z,1.10
2022-11-02T18:32:42.251Z,1.20
2022-11-02T18:35:12.179Z,1.33
2022-11-02T18:37:39.415Z,1.10
2022-11-02T18:40:07.727Z,1.50
2022-11-02T18:42:38.791Z,1.20
2022-11-02T18:45:05.967Z,1.33
2022-11-02T18:47:32.795Z,0.90
2022-11-02T18:50:00.655Z,1.25
2022-11-02T18:52:32.099Z,1.70
2022-11-02T18:55:05.335Z,1.20
2022-11-02T18:57:32.643Z,2.38
2022-11-02T18:59:59.827Z,1.30
2022-11-02T19:02:26.386Z,1.48
2022-11-02T19:04:52.903Z,1.38
2022-11-02T19:07:38.149Z,1.50
2022-11-02T19:10:05.023Z,1.55
2022-11-02T19:12:31.585Z,1.30
2022-11-02T19:14:58.540Z,1.30
2022-11-02T19:17:26.187Z,1.30
2022-11-02T19:19:53.110Z,1.50
2022-11-02T19:22:24.986Z,1.60
2022-11-02T19:24:51.558Z,1.73
2022-11-02T19:27:25.134Z,1.30
2022-11-02T19:29:52.397Z,1.30
2022-11-02T19:32:19.645Z,1.33
2022-11-02T19:34:46.267Z,2.70
2022-11-02T19:37:13.358Z,1.38
2022-11-02T19:39:40.125Z,1.70
2022-11-02T19:42:07.390Z,1.55
2022-11-02T19:44:38.217Z,1.30
2022-11-02T19:47:08.681Z,1.45
2022-11-02T19:49:35.045Z,1.73
2022-11-02T19:52:01.477Z,1.70
2022-11-02T19:54:27.877Z,1.35
2022-11-02T19:56:54.306Z,2.17
2022-11-02T19:59:20.781Z,1.80
2022-11-02T20:01:48.287Z,1.38
2022-11-02T20:04:14.878Z,1.52
2022-11-02T20:06:43.601Z,1.33
2022-11-02T20:09:18.766Z,1.53
2022-11-02T20:11:46.876Z,1.50
2022-11-02T20:14:15.158Z,1.40
2022-11-02T20:16:42.066Z,1.70
2022-11-02T20:19:09.232Z,1.23
2022-11-02T20:21:41.667Z,2.28
2022-11-02T20:24:10.575Z,1.30
2022-11-02T20:26:39.733Z,1.98
2022-11-02T20:29:07.086Z,1.60
2022-11-02T20:31:35.950Z,1.63
2022-11-02T20:34:03.909Z,2.13
2022-11-02T20:36:30.758Z,1.90
2022-11-02T20:38:57.349Z,1.35
2022-11-02T20:41:24.601Z,1.40
2022-11-02T20:43:53.038Z,2.17
2022-11-02T20:46:40.001Z,1.50
2022-11-02T20:49:21.008Z,1.02
2022-11-02T20:51:52.810Z,1.40
2022-11-02T20:54:20.197Z,1.52
2022-11-02T20:56:47.458Z,1.30
2022-11-02T20:59:14.164Z,1.48
2022-11-02T21:01:40.753Z,1.50
2022-11-02T21:04:07.475Z,1.50
2022-11-02T21:06:33.948Z,2.63
2022-11-02T21:09:00.837Z,1.70
2022-11-02T21:11:45.998Z,1.60
2022-11-02T21:14:12.467Z,1.70
2022-11-02T21:16:39.012Z,1.60
2022-11-02T21:19:05.463Z,1.70
2022-11-02T21:21:31.959Z,1.75
2022-11-02T21:23:58.452Z,1.60
2022-11-02T21:26:25.009Z,2.38
2022-11-02T21:28:51.517Z,1.52
2022-11-02T21:31:20.471Z,1.42
2022-11-02T21:33:48.915Z,1.40
2022-11-02T21:36:16.476Z,1.90
2022-11-02T21:38:45.077Z,1.60
2022-11-02T21:41:18.214Z,2.20
2022-11-02T21:43:44.847Z,1.55
2022-11-02T21:46:11.471Z,1.60
2022-11-02T21:48:38.663Z,1.95
2022-11-02T21:51:10.226Z,1.80
2022-11-02T21:53:39.162Z,1.73
2022-11-02T21:56:08.279Z,1.80
2022-11-02T21:58:35.283Z,1.75
2022-11-02T22:01:26.509Z,1.73
2022-11-02T22:03:53.221Z,1.80
2022-11-02T22:06:21.284Z,1.88
2022-11-02T22:08:48.317Z,1.83
2022-11-02T22:11:16.895Z,1.75
2022-11-02T22:13:43.711Z,2.03
2022-11-02T22:16:20.533Z,1.73
2022-11-02T22:18:48.773Z,2.08
2022-11-02T22:21:16.953Z,2.00
2022-11-02T22:23:47.393Z,2.20
2022-11-02T22:26:18.270Z,2.22
2022-11-02T22:28:45.915Z,1.85
2022-11-02T22:31:22.402Z,2.85
2022-11-02T22:33:51.149Z,2.10
2022-11-02T22:36:20.151Z,2.17
2022-11-02T22:38:56.115Z,1.90
2022-11-02T22:41:45.201Z,2.13
2022-11-02T22:44:13.117Z,2.10
2022-11-02T22:46:42.195Z,1.65
2022-11-02T22:49:10.866Z,2.00
2022-11-02T22:51:45.756Z,1.90
2022-11-02T22:54:15.539Z,1.98
2022-11-02T22:56:43.689Z,2.05
2022-11-02T22:59:10.511Z,1.98
2022-11-02T23:01:37.948Z,1.83
2022-11-02T23:04:05.719Z,2.05
2022-11-02T23:06:33.091Z,1.80
2022-11-02T23:08:59.875Z,2.70
2022-11-02T23:11:30.838Z,1.90
2022-11-02T23:14:02.827Z,1.70
2022-11-02T23:16:37.919Z,2.38
2022-11-02T23:19:27.281Z,1.85
2022-11-02T23:22:16.199Z,2.17
2022-11-02T23:25:09.042Z,1.85
2022-11-02T23:27:59.449Z,1.48
2022-11-02T23:30:47.427Z,1.52
2022-11-02T23:33:13.936Z,1.52
2022-11-02T23:35:59.024Z,1.80
2022-11-02T23:38:45.747Z,1.70
2022-11-02T23:41:12.190Z,1.90
2022-11-02T23:43:38.601Z,1.80
2022-11-02T23:46:05.234Z,1.42
2022-11-02T23:48:31.643Z,1.70
2022-11-02T23:51:17.190Z,1.73
2022-11-02T23:54:02.087Z,1.98
2022-11-02T23:56:44.459Z,1.98
2022-11-02T23:59:14.040Z,1.42
